sensor_id;sensor_type;location;lat;lon;timestamp;temperature;humidity
41644;DHT22;44236;48.098;11.582;2024-02-26T00:00:56;19.90;45.30
41644;DHT22;44236;48.098;11.582;2024-02-26T00:03:21;19.80;45.40
41644;DHT22;44236;48.098;11.582;2024-02-26T00:05:47;19.80;45.50
41644;DHT22;44236;48.098;11.582;2024-02-26T00:08:12;19.80;45.50
41644;DHT22;44236;48.098;11.582;2024-02-26T00:10:38;19.70;45.50
41644;DHT22;44236;48.098;11.582;2024-02-26T00:13:04;19.70;45.60
41644;DHT22;44236;48.098;11.582;2024-02-26T00:15:30;19.70;45.80
41644;DHT22;44236;48.098;11.582;2024-02-26T00:17:55;19.60;45.50
41644;DHT22;44236;48.098;11.582;2024-02-26T00:20:21;19.60;45.60
41644;DHT22;44236;48.098;11.582;2024-02-26T00:22:46;19.60;45.80
41644;DHT22;44236;48.098;11.582;2024-02-26T00:25:12;19.50;45.70
41644;DHT22;44236;48.098;11.582;2024-02-26T00:27:38;19.50;45.90
41644;DHT22;44236;48.098;11.582;2024-02-26T00:30:06;19.50;45.60
41644;DHT22;44236;48.098;11.582;2024-02-26T00:32:32;19.40;45.70
41644;DHT22;44236;48.098;11.582;2024-02-26T00:34:57;19.40;45.80
41644;DHT22;44236;48.098;11.582;2024-02-26T00:37:23;19.40;45.90
41644;DHT22;44236;48.098;11.582;2024-02-26T00:39:48;19.40;45.90
41644;DHT22;44236;48.098;11.582;2024-02-26T00:42:14;19.30;45.80
41644;DHT22;44236;48.098;11.582;2024-02-26T00:44:40;19.30;45.80
41644;DHT22;44236;48.098;11.582;2024-02-26T00:47:05;19.30;45.70
41644;DHT22;44236;48.098;11.582;2024-02-26T00:49:31;19.20;45.80
41644;DHT22;44236;48.098;11.582;2024-02-26T00:51:56;19.20;45.80
41644;DHT22;44236;48.098;11.582;2024-02-26T00:54:22;19.20;45.80
41644;DHT22;44236;48.098;11.582;2024-02-26T00:56:48;19.20;45.80
41644;DHT22;44236;48.098;11.582;2024-02-26T00:59:13;19.20;45.80
41644;DHT22;44236;48.098;11.582;2024-02-26T01:01:39;19.10;45.90
41644;DHT22;44236;48.098;11.582;2024-02-26T01:04:04;19.10;45.90
41644;DHT22;44236;48.098;11.582;2024-02-26T01:06:30;19.10;45.70
41644;DHT22;44236;48.098;11.582;2024-02-26T01:08:55;19.10;45.70
41644;DHT22;44236;48.098;11.582;2024-02-26T01:11:21;19.00;45.60
41644;DHT22;44236;48.098;11.582;2024-02-26T01:13:47;19.00;45.70
41644;DHT22;44236;48.098;11.582;2024-02-26T01:16:12;19.00;45.90
41644;DHT22;44236;48.098;11.582;2024-02-26T01:18:38;19.00;45.70
41644;DHT22;44236;48.098;11.582;2024-02-26T01:21:03;19.00;46.10
41644;DHT22;44236;48.098;11.582;2024-02-26T01:23:32;18.90;45.70
41644;DHT22;44236;48.098;11.582;2024-02-26T01:25:57;18.90;45.80
41644;DHT22;44236;48.098;11.582;2024-02-26T01:28:23;18.90;45.80
41644;DHT22;44236;48.098;11.582;2024-02-26T01:30:49;18.80;45.90
41644;DHT22;44236;48.098;11.582;2024-02-26T01:33:14;18.80;45.70
41644;DHT22;44236;48.098;11.582;2024-02-26T01:35:40;18.80;45.70
41644;DHT22;44236;48.098;11.582;2024-02-26T01:38:05;18.80;45.60
41644;DHT22;44236;48.098;11.582;2024-02-26T01:40:31;18.80;45.60
41644;DHT22;44236;48.098;11.582;2024-02-26T01:42:56;18.70;45.60
41644;DHT22;44236;48.098;11.582;2024-02-26T01:45:22;18.70;46.00
41644;DHT22;44236;48.098;11.582;2024-02-26T01:47:50;18.70;45.70
41644;DHT22;44236;48.098;11.582;2024-02-26T01:50:17;18.70;45.70
41644;DHT22;44236;48.098;11.582;2024-02-26T01:52:44;18.70;45.60
41644;DHT22;44236;48.098;11.582;2024-02-26T01:55:12;18.60;45.80
41644;DHT22;44236;48.098;11.582;2024-02-26T01:57:40;18.60;45.60
41644;DHT22;44236;48.098;11.582;2024-02-26T02:00:07;18.60;45.90
41644;DHT22;44236;48.098;11.582;2024-02-26T02:02:32;18.60;45.40
41644;DHT22;44236;48.098;11.582;2024-02-26T02:04:58;18.60;45.50
41644;DHT22;44236;48.098;11.582;2024-02-26T02:07:24;18.60;45.30
41644;DHT22;44236;48.098;11.582;2024-02-26T02:09:50;18.60;45.40
41644;DHT22;44236;48.098;11.582;2024-02-26T02:12:16;18.60;45.40
41644;DHT22;44236;48.098;11.582;2024-02-26T02:14:41;18.60;45.50
41644;DHT22;44236;48.098;11.582;2024-02-26T02:17:07;18.60;45.40
41644;DHT22;44236;48.098;11.582;2024-02-26T02:19:33;18.60;45.50
41644;DHT22;44236;48.098;11.582;2024-02-26T02:21:58;18.60;45.20
41644;DHT22;44236;48.098;11.582;2024-02-26T02:24:24;18.50;45.30
41644;DHT22;44236;48.098;11.582;2024-02-26T02:26:49;18.50;45.30
41644;DHT22;44236;48.098;11.582;2024-02-26T02:29:15;18.60;45.60
41644;DHT22;44236;48.098;11.582;2024-02-26T02:31:41;18.50;45.20
41644;DHT22;44236;48.098;11.582;2024-02-26T02:34:08;18.50;45.10
41644;DHT22;44236;48.098;11.582;2024-02-26T02:36:34;18.50;45.20
41644;DHT22;44236;48.098;11.582;2024-02-26T02:39:00;18.50;45.20
41644;DHT22;44236;48.098;11.582;2024-02-26T02:41:25;18.50;45.20
41644;DHT22;44236;48.098;11.582;2024-02-26T02:43:52;18.50;45.00
41644;DHT22;44236;48.098;11.582;2024-02-26T02:46:18;18.50;45.10
41644;DHT22;44236;48.098;11.582;2024-02-26T02:48:44;18.50;45.00
41644;DHT22;44236;48.098;11.582;2024-02-26T02:51:10;18.40;44.90
41644;DHT22;44236;48.098;11.582;2024-02-26T02:53:36;18.40;45.10
41644;DHT22;44236;48.098;11.582;2024-02-26T02:56:01;18.40;45.10
41644;DHT22;44236;48.098;11.582;2024-02-26T02:58:27;18.40;45.10
41644;DHT22;44236;48.098;11.582;2024-02-26T03:00:52;18.40;45.10
41644;DHT22;44236;48.098;11.582;2024-02-26T03:03:20;18.40;44.80
41644;DHT22;44236;48.098;11.582;2024-02-26T03:05:46;18.40;44.90
41644;DHT22;44236;48.098;11.582;2024-02-26T03:08:11;18.40;44.90
41644;DHT22;44236;48.098;11.582;2024-02-26T03:10:37;18.40;45.00
41644;DHT22;44236;48.098;11.582;2024-02-26T03:13:03;18.40;45.10
41644;DHT22;44236;48.098;11.582;2024-02-26T03:15:28;18.30;45.00
41644;DHT22;44236;48.098;11.582;2024-02-26T03:17:54;18.30;44.90
41644;DHT22;44236;48.098;11.582;2024-02-26T03:20:19;18.30;44.80
41644;DHT22;44236;48.098;11.582;2024-02-26T03:22:45;18.30;44.80
41644;DHT22;44236;48.098;11.582;2024-02-26T03:25:11;18.30;44.90
41644;DHT22;44236;48.098;11.582;2024-02-26T03:27:36;18.30;44.90
41644;DHT22;44236;48.098;11.582;2024-02-26T03:30:02;18.40;45.00
41644;DHT22;44236;48.098;11.582;2024-02-26T03:32:29;18.30;45.00
41644;DHT22;44236;48.098;11.582;2024-02-26T03:34:54;18.20;44.80
41644;DHT22;44236;48.098;11.582;2024-02-26T03:37:21;18.20;45.00
41644;DHT22;44236;48.098;11.582;2024-02-26T03:39:46;18.20;44.80
41644;DHT22;44236;48.098;11.582;2024-02-26T03:42:12;18.20;44.80
41644;DHT22;44236;48.098;11.582;2024-02-26T03:44:38;18.20;44.80
41644;DHT22;44236;48.098;11.582;2024-02-26T03:47:03;18.20;45.00
41644;DHT22;44236;48.098;11.582;2024-02-26T03:49:29;18.20;45.00
41644;DHT22;44236;48.098;11.582;2024-02-26T03:51:54;18.20;44.90
41644;DHT22;44236;48.098;11.582;2024-02-26T03:54:20;18.20;44.90
41644;DHT22;44236;48.098;11.582;2024-02-26T03:56:46;18.20;45.20
41644;DHT22;44236;48.098;11.582;2024-02-26T03:59:11;18.20;45.30
41644;DHT22;44236;48.098;11.582;2024-02-26T04:01:37;18.20;45.30
41644;DHT22;44236;48.098;11.582;2024-02-26T04:04:02;18.20;45.20
41644;DHT22;44236;48.098;11.582;2024-02-26T04:06:28;18.30;45.20
41644;DHT22;44236;48.098;11.582;2024-02-26T04:08:54;18.30;45.00
41644;DHT22;44236;48.098;11.582;2024-02-26T04:11:19;18.30;44.80
41644;DHT22;44236;48.098;11.582;2024-02-26T04:13:46;18.30;44.60
41644;DHT22;44236;48.098;11.582;2024-02-26T04:16:14;18.40;44.70
41644;DHT22;44236;48.098;11.582;2024-02-26T04:18:40;18.40;44.60
41644;DHT22;44236;48.098;11.582;2024-02-26T04:21:07;18.40;44.50
41644;DHT22;44236;48.098;11.582;2024-02-26T04:23:32;18.40;44.30
41644;DHT22;44236;48.098;11.582;2024-02-26T04:25:58;18.40;44.10
41644;DHT22;44236;48.098;11.582;2024-02-26T04:28:24;18.40;43.90
41644;DHT22;44236;48.098;11.582;2024-02-26T04:30:55;18.40;43.80
41644;DHT22;44236;48.098;11.582;2024-02-26T04:33:20;18.40;43.80
41644;DHT22;44236;48.098;11.582;2024-02-26T04:35:46;18.40;43.80
41644;DHT22;44236;48.098;11.582;2024-02-26T04:38:11;18.40;43.70
41644;DHT22;44236;48.098;11.582;2024-02-26T04:40:37;18.50;43.80
41644;DHT22;44236;48.098;11.582;2024-02-26T04:43:03;18.50;43.70
41644;DHT22;44236;48.098;11.582;2024-02-26T04:45:28;18.50;43.90
41644;DHT22;44236;48.098;11.582;2024-02-26T04:47:54;18.50;44.00
41644;DHT22;44236;48.098;11.582;2024-02-26T04:50:20;18.50;44.00
41644;DHT22;44236;48.098;11.582;2024-02-26T04:52:45;18.50;44.20
41644;DHT22;44236;48.098;11.582;2024-02-26T04:55:11;18.50;44.00
41644;DHT22;44236;48.098;11.582;2024-02-26T04:57:36;18.50;44.10
41644;DHT22;44236;48.098;11.582;2024-02-26T05:00:03;18.50;43.90
41644;DHT22;44236;48.098;11.582;2024-02-26T05:02:30;18.50;44.00
41644;DHT22;44236;48.098;11.582;2024-02-26T05:04:57;18.50;43.80
41644;DHT22;44236;48.098;11.582;2024-02-26T05:07:23;18.50;43.90
41644;DHT22;44236;48.098;11.582;2024-02-26T05:09:49;18.50;43.00
41644;DHT22;44236;48.098;11.582;2024-02-26T05:12:15;18.50;43.40
41644;DHT22;44236;48.098;11.582;2024-02-26T05:14:41;18.50;43.40
41644;DHT22;44236;48.098;11.582;2024-02-26T05:17:06;18.50;43.00
41644;DHT22;44236;48.098;11.582;2024-02-26T05:19:32;18.60;43.00
41644;DHT22;44236;48.098;11.582;2024-02-26T05:21:57;18.60;43.10
41644;DHT22;44236;48.098;11.582;2024-02-26T05:24:23;18.50;42.80
41644;DHT22;44236;48.098;11.582;2024-02-26T05:26:49;18.60;43.00
41644;DHT22;44236;48.098;11.582;2024-02-26T05:29:14;18.60;42.90
41644;DHT22;44236;48.098;11.582;2024-02-26T05:31:42;18.60;43.00
41644;DHT22;44236;48.098;11.582;2024-02-26T05:34:08;18.60;42.90
41644;DHT22;44236;48.098;11.582;2024-02-26T05:36:33;18.60;43.00
41644;DHT22;44236;48.098;11.582;2024-02-26T05:39:00;18.60;43.00
41644;DHT22;44236;48.098;11.582;2024-02-26T05:41:26;18.60;43.30
41644;DHT22;44236;48.098;11.582;2024-02-26T05:43:54;18.60;42.60
41644;DHT22;44236;48.098;11.582;2024-02-26T05:46:20;18.60;42.90
41644;DHT22;44236;48.098;11.582;2024-02-26T05:48:48;18.60;43.00
41644;DHT22;44236;48.098;11.582;2024-02-26T05:51:14;18.60;42.70
41644;DHT22;44236;48.098;11.582;2024-02-26T05:53:41;18.60;43.20
41644;DHT22;44236;48.098;11.582;2024-02-26T05:56:07;18.60;42.80
41644;DHT22;44236;48.098;11.582;2024-02-26T05:58:32;18.60;42.50
41644;DHT22;44236;48.098;11.582;2024-02-26T06:00:58;18.70;42.80
41644;DHT22;44236;48.098;11.582;2024-02-26T06:03:25;18.60;42.70
41644;DHT22;44236;48.098;11.582;2024-02-26T06:05:51;18.70;42.70
41644;DHT22;44236;48.098;11.582;2024-02-26T06:08:16;18.70;42.70
41644;DHT22;44236;48.098;11.582;2024-02-26T06:10:42;18.70;42.50
41644;DHT22;44236;48.098;11.582;2024-02-26T06:13:08;18.70;43.00
41644;DHT22;44236;48.098;11.582;2024-02-26T06:15:33;18.70;43.70
41644;DHT22;44236;48.098;11.582;2024-02-26T06:17:59;18.70;43.10
41644;DHT22;44236;48.098;11.582;2024-02-26T06:20:24;18.70;43.50
41644;DHT22;44236;48.098;11.582;2024-02-26T06:22:50;18.70;43.00
41644;DHT22;44236;48.098;11.582;2024-02-26T06:25:16;18.70;43.50
41644;DHT22;44236;48.098;11.582;2024-02-26T06:27:42;18.70;43.60
41644;DHT22;44236;48.098;11.582;2024-02-26T06:30:07;18.70;43.20
41644;DHT22;44236;48.098;11.582;2024-02-26T06:32:36;18.80;43.30
41644;DHT22;44236;48.098;11.582;2024-02-26T06:35:02;18.80;44.30
41644;DHT22;44236;48.098;11.582;2024-02-26T06:37:32;18.80;43.80
41644;DHT22;44236;48.098;11.582;2024-02-26T06:39:59;18.80;43.40
41644;DHT22;44236;48.098;11.582;2024-02-26T06:42:25;18.80;43.40
41644;DHT22;44236;48.098;11.582;2024-02-26T06:44:51;18.80;43.20
41644;DHT22;44236;48.098;11.582;2024-02-26T06:47:16;18.80;43.70
41644;DHT22;44236;48.098;11.582;2024-02-26T06:49:42;18.80;43.60
41644;DHT22;44236;48.098;11.582;2024-02-26T06:52:09;18.80;43.50
41644;DHT22;44236;48.098;11.582;2024-02-26T06:54:34;18.80;43.30
41644;DHT22;44236;48.098;11.582;2024-02-26T06:57:00;18.80;43.50
41644;DHT22;44236;48.098;11.582;2024-02-26T06:59:25;18.90;46.50
41644;DHT22;44236;48.098;11.582;2024-02-26T07:01:51;18.90;46.50
41644;DHT22;44236;48.098;11.582;2024-02-26T07:04:17;18.80;46.10
41644;DHT22;44236;48.098;11.582;2024-02-26T07:06:42;18.90;46.60
41644;DHT22;44236;48.098;11.582;2024-02-26T07:09:09;18.80;46.40
41644;DHT22;44236;48.098;11.582;2024-02-26T07:11:35;18.90;46.50
41644;DHT22;44236;48.098;11.582;2024-02-26T07:14:01;18.90;46.40
41644;DHT22;44236;48.098;11.582;2024-02-26T07:16:26;18.90;46.40
41644;DHT22;44236;48.098;11.582;2024-02-26T07:18:52;18.90;46.40
41644;DHT22;44236;48.098;11.582;2024-02-26T07:21:18;19.00;46.10
41644;DHT22;44236;48.098;11.582;2024-02-26T07:23:43;19.20;46.10
41644;DHT22;44236;48.098;11.582;2024-02-26T07:26:09;19.20;45.60
41644;DHT22;44236;48.098;11.582;2024-02-26T07:28:37;19.30;45.20
41644;DHT22;44236;48.098;11.582;2024-02-26T07:31:02;19.30;44.80
41644;DHT22;44236;48.098;11.582;2024-02-26T07:33:28;19.40;44.40
41644;DHT22;44236;48.098;11.582;2024-02-26T07:35:54;19.40;44.30
41644;DHT22;44236;48.098;11.582;2024-02-26T07:38:20;19.50;44.00
41644;DHT22;44236;48.098;11.582;2024-02-26T07:40:46;19.50;43.70
41644;DHT22;44236;48.098;11.582;2024-02-26T07:43:12;19.60;43.40
41644;DHT22;44236;48.098;11.582;2024-02-26T07:45:37;19.60;43.70
41644;DHT22;44236;48.098;11.582;2024-02-26T07:48:03;19.70;43.80
41644;DHT22;44236;48.098;11.582;2024-02-26T07:50:29;19.70;43.40
41644;DHT22;44236;48.098;11.582;2024-02-26T07:52:54;19.80;43.50
41644;DHT22;44236;48.098;11.582;2024-02-26T07:55:20;19.80;43.30
41644;DHT22;44236;48.098;11.582;2024-02-26T07:57:46;19.90;43.30
41644;DHT22;44236;48.098;11.582;2024-02-26T08:00:12;20.00;43.30
41644;DHT22;44236;48.098;11.582;2024-02-26T08:02:42;20.00;43.10
41644;DHT22;44236;48.098;11.582;2024-02-26T08:05:08;20.00;43.00
41644;DHT22;44236;48.098;11.582;2024-02-26T08:07:33;20.10;42.50
41644;DHT22;44236;48.098;11.582;2024-02-26T08:09:59;20.10;42.50
41644;DHT22;44236;48.098;11.582;2024-02-26T08:12:24;20.10;42.50
41644;DHT22;44236;48.098;11.582;2024-02-26T08:14:50;20.10;42.00
41644;DHT22;44236;48.098;11.582;2024-02-26T08:17:16;20.20;41.90
41644;DHT22;44236;48.098;11.582;2024-02-26T08:19:42;20.20;42.00
41644;DHT22;44236;48.098;11.582;2024-02-26T08:22:07;20.20;42.00
41644;DHT22;44236;48.098;11.582;2024-02-26T08:24:35;20.30;41.60
41644;DHT22;44236;48.098;11.582;2024-02-26T08:27:00;20.30;41.50
41644;DHT22;44236;48.098;11.582;2024-02-26T08:29:26;20.30;41.00
41644;DHT22;44236;48.098;11.582;2024-02-26T08:31:51;20.40;41.30
41644;DHT22;44236;48.098;11.582;2024-02-26T08:34:17;20.40;41.30
41644;DHT22;44236;48.098;11.582;2024-02-26T08:36:43;20.40;41.50
41644;DHT22;44236;48.098;11.582;2024-02-26T08:39:09;20.50;41.20
41644;DHT22;44236;48.098;11.582;2024-02-26T08:41:35;20.50;41.10
41644;DHT22;44236;48.098;11.582;2024-02-26T08:44:01;20.50;40.90
41644;DHT22;44236;48.098;11.582;2024-02-26T08:46:26;20.60;41.10
41644;DHT22;44236;48.098;11.582;2024-02-26T08:48:52;20.60;40.70
41644;DHT22;44236;48.098;11.582;2024-02-26T08:51:17;20.60;40.80
41644;DHT22;44236;48.098;11.582;2024-02-26T08:53:43;20.60;40.50
41644;DHT22;44236;48.098;11.582;2024-02-26T08:56:08;20.70;40.20
41644;DHT22;44236;48.098;11.582;2024-02-26T08:58:34;20.80;40.30
41644;DHT22;44236;48.098;11.582;2024-02-26T09:01:00;20.70;40.00
41644;DHT22;44236;48.098;11.582;2024-02-26T09:03:26;20.80;40.10
41644;DHT22;44236;48.098;11.582;2024-02-26T09:05:51;20.80;40.60
41644;DHT22;44236;48.098;11.582;2024-02-26T09:08:17;20.90;40.30
41644;DHT22;44236;48.098;11.582;2024-02-26T09:10:43;20.90;40.90
41644;DHT22;44236;48.098;11.582;2024-02-26T09:13:08;20.90;40.70
41644;DHT22;44236;48.098;11.582;2024-02-26T09:15:34;20.90;41.20
41644;DHT22;44236;48.098;11.582;2024-02-26T09:17:59;21.00;40.40
41644;DHT22;44236;48.098;11.582;2024-02-26T09:20:25;21.00;40.50
41644;DHT22;44236;48.098;11.582;2024-02-26T09:22:51;21.00;40.30
41644;DHT22;44236;48.098;11.582;2024-02-26T09:25:17;21.10;40.30
41644;DHT22;44236;48.098;11.582;2024-02-26T09:27:43;21.10;40.00
41644;DHT22;44236;48.098;11.582;2024-02-26T09:30:13;21.10;40.70
41644;DHT22;44236;48.098;11.582;2024-02-26T09:32:39;21.20;41.00
41644;DHT22;44236;48.098;11.582;2024-02-26T09:35:06;21.30;41.20
41644;DHT22;44236;48.098;11.582;2024-02-26T09:37:32;21.40;41.60
41644;DHT22;44236;48.098;11.582;2024-02-26T09:39:59;21.50;41.60
41644;DHT22;44236;48.098;11.582;2024-02-26T09:42:27;21.50;41.70
41644;DHT22;44236;48.098;11.582;2024-02-26T09:47:26;23.40;32.60
41644;DHT22;44236;48.098;11.582;2024-02-26T09:49:54;24.60;34.10
41644;DHT22;44236;48.098;11.582;2024-02-26T09:52:20;25.70;33.00
41644;DHT22;44236;48.098;11.582;2024-02-26T09:54:47;25.90;33.60
41644;DHT22;44236;48.098;11.582;2024-02-26T09:57:14;26.20;33.20
41644;DHT22;44236;48.098;11.582;2024-02-26T09:59:43;26.20;32.90
41644;DHT22;44236;48.098;11.582;2024-02-26T10:02:13;26.20;33.10
41644;DHT22;44236;48.098;11.582;2024-02-26T10:04:40;26.20;33.20
41644;DHT22;44236;48.098;11.582;2024-02-26T10:07:11;26.00;33.40
41644;DHT22;44236;48.098;11.582;2024-02-26T10:09:37;25.10;33.10
41644;DHT22;44236;48.098;11.582;2024-02-26T10:12:04;25.70;33.90
41644;DHT22;44236;48.098;11.582;2024-02-26T10:14:30;25.50;34.10
41644;DHT22;44236;48.098;11.582;2024-02-26T10:16:56;25.40;34.40
41644;DHT22;44236;48.098;11.582;2024-02-26T10:19:26;25.30;34.30
41644;DHT22;44236;48.098;11.582;2024-02-26T10:22:00;25.10;34.60
41644;DHT22;44236;48.098;11.582;2024-02-26T10:24:29;25.00;34.80
41644;DHT22;44236;48.098;11.582;2024-02-26T10:26:56;24.80;35.00
41644;DHT22;44236;48.098;11.582;2024-02-26T10:29:24;24.60;35.60
41644;DHT22;44236;48.098;11.582;2024-02-26T10:31:51;24.50;35.50
41644;DHT22;44236;48.098;11.582;2024-02-26T10:34:17;24.40;35.90
41644;DHT22;44236;48.098;11.582;2024-02-26T10:36:43;24.20;36.10
41644;DHT22;44236;48.098;11.582;2024-02-26T10:39:12;24.00;36.80
41644;DHT22;44236;48.098;11.582;2024-02-26T10:41:40;23.80;36.90
41644;DHT22;44236;48.098;11.582;2024-02-26T10:44:06;23.80;37.80
41644;DHT22;44236;48.098;11.582;2024-02-26T10:46:34;23.70;38.30
41644;DHT22;44236;48.098;11.582;2024-02-26T10:49:00;23.50;38.50
41644;DHT22;44236;48.098;11.582;2024-02-26T10:51:28;23.40;39.60
41644;DHT22;44236;48.098;11.582;2024-02-26T10:53:58;23.20;42.70
41644;DHT22;44236;48.098;11.582;2024-02-26T10:56:26;23.10;39.40
41644;DHT22;44236;48.098;11.582;2024-02-26T10:58:56;23.10;39.10
41644;DHT22;44236;48.098;11.582;2024-02-26T11:01:23;23.00;40.00
41644;DHT22;44236;48.098;11.582;2024-02-26T11:03:51;23.00;40.60
41644;DHT22;44236;48.098;11.582;2024-02-26T11:06:21;22.90;39.70
41644;DHT22;44236;48.098;11.582;2024-02-26T11:08:53;22.90;39.60
41644;DHT22;44236;48.098;11.582;2024-02-26T11:11:20;22.90;39.70
41644;DHT22;44236;48.098;11.582;2024-02-26T11:13:47;22.90;39.50
41644;DHT22;44236;48.098;11.582;2024-02-26T11:16:20;22.90;39.10
41644;DHT22;44236;48.098;11.582;2024-02-26T11:18:47;22.80;39.80
41644;DHT22;44236;48.098;11.582;2024-02-26T11:21:16;22.70;39.60
41644;DHT22;44236;48.098;11.582;2024-02-26T11:23:42;22.70;39.60
41644;DHT22;44236;48.098;11.582;2024-02-26T11:26:09;22.60;39.60
41644;DHT22;44236;48.098;11.582;2024-02-26T11:28:37;22.60;39.80
41644;DHT22;44236;48.098;11.582;2024-02-26T11:31:03;22.60;39.90
41644;DHT22;44236;48.098;11.582;2024-02-26T11:33:30;22.50;40.10
41644;DHT22;44236;48.098;11.582;2024-02-26T11:35:56;22.50;40.40
41644;DHT22;44236;48.098;11.582;2024-02-26T11:38:24;22.40;40.70
41644;DHT22;44236;48.098;11.582;2024-02-26T11:40:50;22.40;40.80
41644;DHT22;44236;48.098;11.582;2024-02-26T11:43:16;22.30;40.70
41644;DHT22;44236;48.098;11.582;2024-02-26T11:48:24;22.20;40.90
41644;DHT22;44236;48.098;11.582;2024-02-26T11:50:53;22.20;41.10
41644;DHT22;44236;48.098;11.582;2024-02-26T11:53:23;22.20;40.60
41644;DHT22;44236;48.098;11.582;2024-02-26T11:58:43;22.20;41.10
41644;DHT22;44236;48.098;11.582;2024-02-26T12:01:37;22.20;41.10
41644;DHT22;44236;48.098;11.582;2024-02-26T12:04:13;22.20;41.10
41644;DHT22;44236;48.098;11.582;2024-02-26T12:06:57;22.20;41.30
41644;DHT22;44236;48.098;11.582;2024-02-26T12:09:41;22.10;40.90
41644;DHT22;44236;48.098;11.582;2024-02-26T12:12:08;22.10;41.20
41644;DHT22;44236;48.098;11.582;2024-02-26T12:14:51;22.10;41.50
41644;DHT22;44236;48.098;11.582;2024-02-26T12:17:22;22.00;41.70
41644;DHT22;44236;48.098;11.582;2024-02-26T12:19:48;21.90;41.40
41644;DHT22;44236;48.098;11.582;2024-02-26T12:22:14;21.80;41.60
41644;DHT22;44236;48.098;11.582;2024-02-26T12:24:42;21.80;42.40
41644;DHT22;44236;48.098;11.582;2024-02-26T12:27:07;21.70;41.90
41644;DHT22;44236;48.098;11.582;2024-02-26T12:29:33;21.70;42.30
41644;DHT22;44236;48.098;11.582;2024-02-26T12:31:59;21.60;42.30
41644;DHT22;44236;48.098;11.582;2024-02-26T12:34:25;21.60;42.40
41644;DHT22;44236;48.098;11.582;2024-02-26T12:36:52;21.60;42.10
41644;DHT22;44236;48.098;11.582;2024-02-26T12:39:19;21.60;42.10
41644;DHT22;44236;48.098;11.582;2024-02-26T12:41:46;21.60;42.60
41644;DHT22;44236;48.098;11.582;2024-02-26T12:44:16;21.60;41.90
41644;DHT22;44236;48.098;11.582;2024-02-26T12:46:41;21.60;42.50
41644;DHT22;44236;48.098;11.582;2024-02-26T12:49:07;21.50;42.00
41644;DHT22;44236;48.098;11.582;2024-02-26T12:51:33;21.50;42.70
41644;DHT22;44236;48.098;11.582;2024-02-26T12:53:59;21.50;42.60
41644;DHT22;44236;48.098;11.582;2024-02-26T12:56:26;21.50;42.60
41644;DHT22;44236;48.098;11.582;2024-02-26T12:58:53;21.40;42.70
41644;DHT22;44236;48.098;11.582;2024-02-26T13:01:22;21.50;42.90
41644;DHT22;44236;48.098;11.582;2024-02-26T13:03:49;21.40;42.90
41644;DHT22;44236;48.098;11.582;2024-02-26T13:06:15;21.40;42.70
41644;DHT22;44236;48.098;11.582;2024-02-26T13:08:41;21.40;43.00
41644;DHT22;44236;48.098;11.582;2024-02-26T13:11:07;21.40;43.00
41644;DHT22;44236;48.098;11.582;2024-02-26T13:13:33;21.40;42.90
41644;DHT22;44236;48.098;11.582;2024-02-26T13:16:05;21.40;43.00
41644;DHT22;44236;48.098;11.582;2024-02-26T13:18:32;21.40;43.70
41644;DHT22;44236;48.098;11.582;2024-02-26T13:21:14;21.40;43.40
41644;DHT22;44236;48.098;11.582;2024-02-26T13:23:40;21.30;43.60
41644;DHT22;44236;48.098;11.582;2024-02-26T13:26:07;21.30;43.40
41644;DHT22;44236;48.098;11.582;2024-02-26T13:28:35;21.30;42.50
41644;DHT22;44236;48.098;11.582;2024-02-26T13:31:01;21.00;38.90
41644;DHT22;44236;48.098;11.582;2024-02-26T13:33:28;20.70;35.40
41644;DHT22;44236;48.098;11.582;2024-02-26T13:35:57;20.50;35.40
41644;DHT22;44236;48.098;11.582;2024-02-26T13:38:23;20.30;33.10
41644;DHT22;44236;48.098;11.582;2024-02-26T13:40:50;20.10;34.80
41644;DHT22;44236;48.098;11.582;2024-02-26T13:43:16;19.90;33.40
41644;DHT22;44236;48.098;11.582;2024-02-26T13:45:41;19.90;35.80
41644;DHT22;44236;48.098;11.582;2024-02-26T13:48:08;20.00;38.30
41644;DHT22;44236;48.098;11.582;2024-02-26T13:50:41;20.10;39.50
41644;DHT22;44236;48.098;11.582;2024-02-26T13:53:08;20.20;39.80
41644;DHT22;44236;48.098;11.582;2024-02-26T13:55:34;20.20;39.90
41644;DHT22;44236;48.098;11.582;2024-02-26T13:58:00;20.30;40.50
41644;DHT22;44236;48.098;11.582;2024-02-26T14:00:31;20.40;40.80
41644;DHT22;44236;48.098;11.582;2024-02-26T14:02:59;20.40;41.70
41644;DHT22;44236;48.098;11.582;2024-02-26T14:05:25;20.40;41.80
41644;DHT22;44236;48.098;11.582;2024-02-26T14:07:51;20.50;41.80
41644;DHT22;44236;48.098;11.582;2024-02-26T14:10:17;20.50;41.90
41644;DHT22;44236;48.098;11.582;2024-02-26T14:12:43;20.50;42.00
41644;DHT22;44236;48.098;11.582;2024-02-26T14:15:10;20.50;42.10
41644;DHT22;44236;48.098;11.582;2024-02-26T14:17:36;20.60;42.20
41644;DHT22;44236;48.098;11.582;2024-02-26T14:20:02;20.60;42.20
41644;DHT22;44236;48.098;11.582;2024-02-26T14:22:28;20.60;42.40
41644;DHT22;44236;48.098;11.582;2024-02-26T14:24:56;20.60;42.50
41644;DHT22;44236;48.098;11.582;2024-02-26T14:27:22;20.60;42.60
41644;DHT22;44236;48.098;11.582;2024-02-26T14:29:48;20.60;42.50
41644;DHT22;44236;48.098;11.582;2024-02-26T14:32:14;20.60;42.60
41644;DHT22;44236;48.098;11.582;2024-02-26T14:34:39;20.60;42.70
41644;DHT22;44236;48.098;11.582;2024-02-26T14:37:05;20.60;42.80
41644;DHT22;44236;48.098;11.582;2024-02-26T14:39:32;20.60;42.90
41644;DHT22;44236;48.098;11.582;2024-02-26T14:41:58;20.50;42.90
41644;DHT22;44236;48.098;11.582;2024-02-26T14:44:24;20.50;43.10
41644;DHT22;44236;48.098;11.582;2024-02-26T14:46:50;20.50;43.10
41644;DHT22;44236;48.098;11.582;2024-02-26T14:49:15;20.50;43.20
41644;DHT22;44236;48.098;11.582;2024-02-26T14:51:41;20.50;43.20
41644;DHT22;44236;48.098;11.582;2024-02-26T14:54:07;20.50;43.10
41644;DHT22;44236;48.098;11.582;2024-02-26T14:56:33;20.50;43.50
41644;DHT22;44236;48.098;11.582;2024-02-26T14:58:58;20.50;43.60
41644;DHT22;44236;48.098;11.582;2024-02-26T15:01:24;20.50;43.80
41644;DHT22;44236;48.098;11.582;2024-02-26T15:03:50;20.50;43.80
41644;DHT22;44236;48.098;11.582;2024-02-26T15:06:15;20.40;43.80
41644;DHT22;44236;48.098;11.582;2024-02-26T15:08:41;20.40;43.80
41644;DHT22;44236;48.098;11.582;2024-02-26T15:11:06;20.40;43.90
41644;DHT22;44236;48.098;11.582;2024-02-26T15:13:33;20.50;44.00
41644;DHT22;44236;48.098;11.582;2024-02-26T15:15:59;20.40;43.90
41644;DHT22;44236;48.098;11.582;2024-02-26T15:18:25;20.40;44.10